Time;durP1;ratioP1;P1;durP2;ratioP2;P2;SDS_P1;SDS_P2;PMS_P1;PMS_P2;Temp;Humidity;BMP_temperature;BMP_pressure;BME280_temperature;BME280_humidity;BME280_pressure;Samples;Min_cycle;Max_cycle;Signal;HPM_P1;HPM_P2
2022/05/03 00:02:29;;;;;;;;;;;;;;;14.64;43.73;100732.44;4981546;28;7146;-73
2022/05/03 00:05:14;;;;;;;;;;;;;;;14.61;44.00;100729.75;4981728;28;7168;-73
2022/05/03 00:08:04;;;;;;;;;;;;;;;14.58;43.92;100728.81;4977013;28;6808;-73
2022/05/03 00:11:20;;;;;;;;;;;;;;;14.54;44.96;100723.50;4978832;28;6807;-73
2022/05/03 00:13:50;;;;;;;;;;;;;;;14.47;44.89;100727.53;4984213;28;6812;-73
2022/05/03 00:16:17;;;;;;;;;;;;;;;14.43;44.26;100728.25;4980767;28;8680;-73
2022/05/03 00:18:43;;;;;;;;;;;;;;;14.39;44.94;100727.25;4998874;28;6958;-73
2022/05/03 00:21:10;;;;;;;;;;;;;;;14.36;44.53;100728.81;4984138;28;8091;-73
2022/05/03 00:23:36;;;;;;;;;;;;;;;14.30;45.16;100727.78;4985650;28;6800;-73
2022/05/03 00:26:02;;;;;;;;;;;;;;;14.26;44.73;100725.03;4986325;28;6811;-73
2022/05/03 00:28:29;;;;;;;;;;;;;;;14.21;45.66;100722.28;4982817;28;6974;-73
2022/05/03 00:30:55;;;;;;;;;;;;;;;14.17;45.30;100722.97;4982542;28;6820;-73
2022/05/03 00:33:22;;;;;;;;;;;;;;;14.13;45.95;100721.09;4986170;28;7189;-73
2022/05/03 00:35:49;;;;;;;;;;;;;;;14.09;45.75;100720.09;4982444;28;6808;-73
2022/05/03 00:38:15;;;;;;;;;;;;;;;14.09;45.21;100708.91;4981779;28;6879;-73
2022/05/03 00:40:48;;;;;;;;;;;;;;;14.07;45.10;100707.97;4984662;28;6825;-73
2022/05/03 00:43:25;;;;;;;;;;;;;;;14.07;45.22;100705.41;4984273;28;6835;-73
2022/05/03 00:46:07;;;;;;;;;;;;;;;14.05;45.36;100705.34;4980585;28;6812;-73
2022/05/03 00:49:15;;;;;;;;;;;;;;;14.02;45.48;100708.69;4984135;28;7471;-73
2022/05/03 00:52:09;;;;;;;;;;;;;;;13.98;46.23;100706.78;4980761;28;6823;-73
2022/05/03 00:55:06;;;;;;;;;;;;;;;13.93;45.63;100718.63;4984495;28;6832;-73
2022/05/03 00:57:53;;;;;;;;;;;;;;;13.86;46.31;100712.38;4982864;28;10160;-73
2022/05/03 01:00:20;;;;;;;;;;;;;;;13.83;45.77;100708.78;4978529;28;7385;-73
2022/05/03 01:03:15;;;;;;;;;;;;;;;13.81;46.54;100708.72;4983157;28;6815;-73
2022/05/03 01:06:18;;;;;;;;;;;;;;;13.78;45.73;100712.84;4981241;28;6816;-74
2022/05/03 01:09:05;;;;;;;;;;;;;;;13.73;46.94;100715.25;4981703;28;6820;-74
2022/05/03 01:12:00;;;;;;;;;;;;;;;13.71;46.76;100715.22;4975440;28;6847;-74
2022/05/03 01:15:09;;;;;;;;;;;;;;;13.69;46.45;100714.25;4967557;28;6912;-74
2022/05/03 01:17:45;;;;;;;;;;;;;;;13.66;46.18;100719.28;4982533;28;6823;-74
2022/05/03 01:20:30;;;;;;;;;;;;;;;13.64;46.44;100713.19;4980200;28;6799;-74
2022/05/03 01:23:40;;;;;;;;;;;;;;;13.63;46.29;100708.88;4982663;28;6808;-74
2022/05/03 01:26:42;;;;;;;;;;;;;;;13.60;46.87;100706.16;4978856;28;6995;-74
2022/05/03 01:29:31;;;;;;;;;;;;;;;13.55;46.50;100712.81;4980730;28;6908;-74
2022/05/03 01:32:09;;;;;;;;;;;;;;;13.52;47.20;100720.41;4960143;28;7010;-74
2022/05/03 01:34:37;;;;;;;;;;;;;;;13.48;46.47;100714.28;4981765;28;6808;-74
2022/05/03 01:37:33;;;;;;;;;;;;;;;13.45;46.56;100714.13;4975802;28;6820;-74
2022/05/03 01:40:23;;;;;;;;;;;;;;;13.38;47.40;100723.25;4983220;28;6827;-74
2022/05/03 01:43:13;;;;;;;;;;;;;;;13.31;46.78;100724.72;4968197;28;7337;-74
2022/05/03 01:46:12;;;;;;;;;;;;;;;13.25;47.40;100723.56;4978441;28;6966;-74
2022/05/03 01:52:38;;;;;;;;;;;;;;;13.09;47.16;100716.91;4983251;28;7132;-74
2022/05/03 01:55:39;;;;;;;;;;;;;;;13.01;47.68;100709.72;4981817;28;6899;-74
2022/05/03 01:58:54;;;;;;;;;;;;;;;12.94;48.09;100715.41;4979693;28;6966;-74
2022/05/03 02:01:41;;;;;;;;;;;;;;;12.86;47.71;100717.66;4980492;28;7675;-74
2022/05/03 02:04:35;;;;;;;;;;;;;;;12.81;47.92;100719.13;4979354;28;7756;-74
2022/05/03 02:07:51;;;;;;;;;;;;;;;12.75;48.14;100713.75;4976094;28;6982;-74
2022/05/03 02:10:36;;;;;;;;;;;;;;;12.67;48.70;100703.09;4980453;28;6919;-74
2022/05/03 02:14:43;;;;;;;;;;;;;;;12.64;48.90;100710.69;4980233;28;7121;-74
2022/05/03 02:16:30;;;;;;;;;;;;;;;12.61;48.91;100708.00;4975552;28;6831;-74
2022/05/03 02:19:41;;;;;;;;;;;;;;;12.59;49.14;100712.16;4957029;28;7025;-74
2022/05/03 02:22:31;;;;;;;;;;;;;;;12.56;48.54;100712.94;4983564;28;6832;-74
2022/05/03 02:25:10;;;;;;;;;;;;;;;12.53;49.17;100707.63;4980793;28;7586;-74
2022/05/03 02:27:46;;;;;;;;;;;;;;;12.51;48.68;100714.41;4983920;28;7651;-74
2022/05/03 02:30:15;;;;;;;;;;;;;;;12.50;48.79;100720.34;4984365;28;6824;-74
2022/05/03 02:32:57;;;;;;;;;;;;;;;12.47;49.44;100713.38;4979924;28;7047;-74
2022/05/03 02:35:30;;;;;;;;;;;;;;;12.45;49.00;100724.38;4982656;28;6947;-74
2022/05/03 02:38:01;;;;;;;;;;;;;;;12.43;49.57;100720.88;4984771;28;6804;-74
2022/05/03 02:40:27;;;;;;;;;;;;;;;12.40;49.11;100713.91;4995748;28;6799;-74
2022/05/03 02:42:55;;;;;;;;;;;;;;;12.35;49.21;100711.13;4961625;28;6838;-74
2022/05/03 02:45:20;;;;;;;;;;;;;;;12.32;49.52;100708.41;4960799;28;7239;-75
2022/05/03 02:48:18;;;;;;;;;;;;;;;12.28;49.56;100700.50;4981287;28;6867;-75
2022/05/03 02:51:03;;;;;;;;;;;;;;;12.22;49.15;100703.66;4982875;28;7290;-75
2022/05/03 02:53:46;;;;;;;;;;;;;;;12.17;49.59;100700.03;4981077;28;6800;-75
2022/05/03 02:56:24;;;;;;;;;;;;;;;12.14;49.74;100705.88;4984777;28;6903;-75
2022/05/03 03:01:47;;;;;;;;;;;;;;;12.12;49.33;100711.75;4987672;28;6846;-75
2022/05/03 03:02:39;;;;;;;;;;;;;;;12.08;49.92;100700.47;4983951;28;6987;-75
2022/05/03 03:05:12;;;;;;;;;;;;;;;12.06;49.89;100704.66;4972094;28;6820;-75
2022/05/03 03:08:00;;;;;;;;;;;;;;;12.06;49.81;100702.94;4987337;28;7381;-75
2022/05/03 03:10:43;;;;;;;;;;;;;;;12.05;50.15;100698.63;4984306;28;6831;-75
2022/05/03 03:13:29;;;;;;;;;;;;;;;12.05;49.88;100700.31;4985454;28;6981;-75
2022/05/03 03:15:55;;;;;;;;;;;;;;;12.02;49.78;100702.69;4965417;28;7758;-75
2022/05/03 03:18:24;;;;;;;;;;;;;;;11.98;50.09;100708.50;4996278;28;6863;-75
2022/05/03 03:20:57;;;;;;;;;;;;;;;11.93;49.79;100709.19;4983294;28;6978;-75
2022/05/03 03:23:30;;;;;;;;;;;;;;;11.87;49.75;100705.41;4983767;28;8085;-75
2022/05/03 03:25:58;;;;;;;;;;;;;;;11.85;49.75;100704.47;4967705;28;7242;-75
2022/05/03 03:28:28;;;;;;;;;;;;;;;11.80;49.87;100700.00;4974940;28;6820;-75
2022/05/03 03:30:58;;;;;;;;;;;;;;;11.78;50.04;100703.31;4981399;28;7162;-75
2022/05/03 03:33:25;;;;;;;;;;;;;;;11.76;50.29;100700.66;4984826;28;6828;-75
2022/05/03 03:35:56;;;;;;;;;;;;;;;11.74;50.43;100712.53;4986820;28;7097;-75
2022/05/03 03:38:37;;;;;;;;;;;;;;;11.73;50.22;100708.22;4982279;28;6903;-75
2022/05/03 03:41:03;;;;;;;;;;;;;;;11.71;50.31;100701.25;4967478;28;6812;-75
2022/05/03 03:43:30;;;;;;;;;;;;;;;11.69;50.48;100701.19;4985367;28;8392;-75
2022/05/03 03:45:55;;;;;;;;;;;;;;;11.67;50.63;100703.66;4985752;28;8218;-76
2022/05/03 03:48:21;;;;;;;;;;;;;;;11.66;50.63;100703.59;4968747;28;7265;-76
2022/05/03 03:50:49;;;;;;;;;;;;;;;11.64;50.98;100703.53;4961750;28;6966;-75
2022/05/03 03:53:16;;;;;;;;;;;;;;;11.64;50.69;100705.22;4981358;28;6820;-75
2022/05/03 03:55:44;;;;;;;;;;;;;;;11.64;50.54;100702.63;4984386;28;6804;-75
2022/05/03 03:58:10;;;;;;;;;;;;;;;11.63;50.53;100706.03;4985458;28;6846;-75
2022/05/03 04:00:36;;;;;;;;;;;;;;;11.61;51.10;100711.06;4981180;28;6804;-75
2022/05/03 04:03:04;;;;;;;;;;;;;;;11.61;51.04;100705.06;4986159;28;7410;-75
2022/05/03 04:05:34;;;;;;;;;;;;;;;11.59;50.59;100712.69;4968264;28;8138;-76
2022/05/03 04:07:59;;;;;;;;;;;;;;;11.57;50.93;100708.28;4968907;28;7076;-76
2022/05/03 04:10:25;;;;;;;;;;;;;;;11.57;50.79;100715.97;4983052;28;6811;-76
2022/05/03 04:12:51;;;;;;;;;;;;;;;11.58;50.90;100712.59;4983278;28;6788;-76
2022/05/03 04:15:17;;;;;;;;;;;;;;;11.57;51.23;100715.97;4966175;28;7254;-76
2022/05/03 04:17:44;;;;;;;;;;;;;;;11.57;51.10;100718.53;4980713;28;7944;-76
2022/05/03 04:20:12;;;;;;;;;;;;;;;11.56;50.88;100722.81;4985480;28;6835;-75
2022/05/03 04:22:37;;;;;;;;;;;;;;;11.56;50.81;100714.22;4985513;28;6804;-75
2022/05/03 04:25:05;;;;;;;;;;;;;;;11.57;51.11;100722.00;4968925;28;8355;-75
2022/05/03 04:27:31;;;;;;;;;;;;;;;11.57;51.09;100724.56;4983069;28;6954;-75
2022/05/03 04:29:58;;;;;;;;;;;;;;;11.58;50.82;100725.44;4963475;28;7242;-75
2022/05/03 04:32:29;;;;;;;;;;;;;;;11.59;50.53;100724.63;4983822;28;6811;-75
2022/05/03 04:34:55;;;;;;;;;;;;;;;11.63;50.78;100734.25;4984613;28;6812;-75
2022/05/03 04:37:21;;;;;;;;;;;;;;;11.64;50.99;100729.22;4988278;28;6854;-76
2022/05/03 04:39:46;;;;;;;;;;;;;;;11.68;50.56;100732.78;4986664;28;7010;-76
2022/05/03 04:42:13;;;;;;;;;;;;;;;11.71;50.99;100732.06;4966649;28;8381;-76
2022/05/03 04:44:39;;;;;;;;;;;;;;;11.74;50.85;100739.94;4966315;28;6968;-76
2022/05/03 04:47:05;;;;;;;;;;;;;;;11.75;50.59;100734.84;4977788;28;6848;-76
2022/05/03 04:49:30;;;;;;;;;;;;;;;11.79;50.99;100741.91;4983614;28;7054;-76
2022/05/03 04:51:56;;;;;;;;;;;;;;;11.85;50.98;100743.00;4983488;28;6943;-76
2022/05/03 04:54:23;;;;;;;;;;;;;;;11.92;51.16;100742.50;4966414;28;6795;-76
2022/05/03 04:57:04;;;;;;;;;;;;;;;12.01;51.16;100742.94;4984417;28;6812;-76
2022/05/03 04:59:29;;;;;;;;;;;;;;;12.13;50.93;100746.91;4986628;28;6816;-76
2022/05/03 05:01:55;;;;;;;;;;;;;;;12.26;51.38;100736.41;4983811;28;7248;-76
2022/05/03 05:04:22;;;;;;;;;;;;;;;12.40;50.96;100742.19;4985929;28;6967;-76
2022/05/03 05:06:48;;;;;;;;;;;;;;;12.56;50.61;100742.88;4997862;28;7238;-76
2022/05/03 05:09:13;;;;;;;;;;;;;;;12.69;50.98;100749.47;5003015;28;6768;-76
2022/05/03 05:11:39;;;;;;;;;;;;;;;12.82;50.78;100756.03;4988173;28;6792;-74
2022/05/03 05:14:05;;;;;;;;;;;;;;;12.96;50.14;100760.09;5001968;28;7664;-74
2022/05/03 05:16:31;;;;;;;;;;;;;;;13.11;50.22;100761.59;4986206;28;6784;-74
2022/05/03 05:18:56;;;;;;;;;;;;;;;13.26;49.68;100769.09;4986363;28;6792;-74
2022/05/03 05:21:22;;;;;;;;;;;;;;;13.39;50.32;100767.94;4985294;28;6816;-74
2022/05/03 05:23:48;;;;;;;;;;;;;;;13.53;50.19;100771.13;4980844;28;6871;-74
2022/05/03 05:26:14;;;;;;;;;;;;;;;13.65;49.61;100773.28;4984004;28;7162;-74
2022/05/03 05:28:40;;;;;;;;;;;;;;;13.76;48.82;100769.47;4986550;28;6796;-74
2022/05/03 05:31:05;;;;;;;;;;;;;;;13.87;48.74;100772.47;4995904;28;7286;-74
2022/05/03 05:33:31;;;;;;;;;;;;;;;13.96;49.21;100770.28;4981486;28;6829;-74
2022/05/03 05:35:57;;;;;;;;;;;;;;;14.06;47.89;100765.50;4978074;28;7039;-74
2022/05/03 05:38:22;;;;;;;;;;;;;;;14.15;48.58;100760.69;4996584;28;6804;-74
2022/05/03 05:40:49;;;;;;;;;;;;;;;14.24;47.80;100758.47;4962910;28;6859;-75
2022/05/03 05:43:16;;;;;;;;;;;;;;;14.33;46.85;100769.97;4975523;28;6812;-75
2022/05/03 05:45:42;;;;;;;;;;;;;;;14.35;46.75;100764.06;4984469;28;7252;-75
2022/05/03 05:48:09;;;;;;;;;;;;;;;14.35;45.90;100764.06;4987226;28;6879;-75
2022/05/03 05:50:36;;;;;;;;;;;;;;;14.32;45.66;100769.09;4942711;28;7011;-75
2022/05/03 05:55:45;;;;;;;;;;;;;;;14.33;46.05;100768.25;4984361;28;7278;-75
2022/05/03 05:58:11;;;;;;;;;;;;;;;14.38;45.58;100765.84;4986797;28;6958;-75
2022/05/03 06:00:37;;;;;;;;;;;;;;;14.41;45.26;100766.00;4983186;28;6780;-75
2022/05/03 06:03:04;;;;;;;;;;;;;;;14.45;45.27;100762.69;4984384;28;6792;-75
2022/05/03 06:05:31;;;;;;;;;;;;;;;14.50;44.76;100768.03;4986164;28;6820;-75
2022/05/03 06:07:57;;;;;;;;;;;;;;;14.53;45.28;100769.03;4982082;28;6887;-75
2022/05/03 06:10:23;;;;;;;;;;;;;;;14.56;45.62;100774.28;4960968;28;7829;-75
2022/05/03 06:12:50;;;;;;;;;;;;;;;14.60;44.63;100774.44;4982218;28;6812;-75
2022/05/03 06:15:16;;;;;;;;;;;;;;;14.61;44.95;100771.88;4985342;28;6962;-75
2022/05/03 06:17:42;;;;;;;;;;;;;;;14.64;44.91;100787.50;4982859;28;7795;-75
2022/05/03 06:20:11;;;;;;;;;;;;;;;14.66;45.26;100779.78;4983397;28;6934;-75
2022/05/03 06:22:39;;;;;;;;;;;;;;;14.68;45.21;100778.19;4980556;28;7024;-75
2022/05/03 06:25:08;;;;;;;;;;;;;;;14.71;44.49;100779.16;4984978;28;7025;-75
2022/05/03 06:27:36;;;;;;;;;;;;;;;14.71;44.43;100783.44;4985931;28;6917;-75
2022/05/03 06:30:04;;;;;;;;;;;;;;;14.76;44.47;100793.97;4952735;28;7199;-75
2022/05/03 06:32:29;;;;;;;;;;;;;;;14.81;45.06;100789.84;4984754;28;6832;-75
2022/05/03 06:34:56;;;;;;;;;;;;;;;14.88;44.91;100796.13;4986690;28;7257;-75
2022/05/03 06:37:21;;;;;;;;;;;;;;;14.95;44.74;100792.91;4977303;28;7151;-75
2022/05/03 06:39:47;;;;;;;;;;;;;;;15.01;44.94;100793.16;4983832;28;6776;-75
2022/05/03 06:42:13;;;;;;;;;;;;;;;15.06;44.41;100786.44;4987444;28;6803;-74
2022/05/03 06:44:38;;;;;;;;;;;;;;;15.12;44.23;100785.81;4981567;28;6995;-74
2022/05/03 06:47:05;;;;;;;;;;;;;;;15.19;44.13;100781.72;4988769;28;6795;-74
2022/05/03 06:49:30;;;;;;;;;;;;;;;15.26;44.01;100786.31;4965854;28;7134;-74
2022/05/03 06:51:56;;;;;;;;;;;;;;;15.30;43.92;100782.97;4978525;28;7322;-74
2022/05/03 06:54:22;;;;;;;;;;;;;;;15.32;44.14;100789.06;4960684;28;6969;-74
2022/05/03 06:56:47;;;;;;;;;;;;;;;15.33;44.53;100789.97;4983715;28;6804;-74
2022/05/03 06:59:13;;;;;;;;;;;;;;;15.35;44.30;100796.06;4983722;28;6874;-74
2022/05/03 07:01:39;;;;;;;;;;;;;;;15.41;44.30;100794.56;4986617;28;6870;-74
2022/05/03 07:04:04;;;;;;;;;;;;;;;15.49;43.65;100796.53;4979911;28;6958;-74
2022/05/03 07:06:30;;;;;;;;;;;;;;;15.58;43.90;100799.44;4979236;28;6823;-74
2022/05/03 07:08:56;;;;;;;;;;;;;;;15.63;44.06;100794.41;4984066;28;6949;-74
2022/05/03 07:11:21;;;;;;;;;;;;;;;15.68;43.56;100801.50;4983796;28;7107;-74
2022/05/03 07:13:50;;;;;;;;;;;;;;;15.75;44.00;100804.28;4988501;28;7823;-74
2022/05/03 07:16:15;;;;;;;;;;;;;;;15.79;43.00;100806.13;4981517;28;6899;-74
2022/05/03 07:24:10;;;;;;;;;;;;;;;16.02;43.70;100808.63;4986425;28;7208;-74
2022/05/03 07:26:37;;;;;;;;;;;;;;;16.14;43.40;100809.03;4980586;28;6812;-74
2022/05/03 07:29:04;;;;;;;;;;;;;;;16.29;43.40;100806.03;4982737;28;7035;-74
2022/05/03 07:31:30;;;;;;;;;;;;;;;16.44;43.38;100805.63;4979614;28;6812;-74
2022/05/03 07:33:56;;;;;;;;;;;;;;;16.58;42.97;100811.22;4984025;28;6780;-74
2022/05/03 07:36:22;;;;;;;;;;;;;;;16.72;42.49;100814.22;4979658;28;6966;-74
2022/05/03 07:38:48;;;;;;;;;;;;;;;16.77;41.86;100812.63;4983338;28;6887;-74
2022/05/03 07:41:15;;;;;;;;;;;;;;;16.80;41.86;100812.75;4967655;28;8195;-74
2022/05/03 07:43:43;;;;;;;;;;;;;;;16.82;41.83;100810.19;4984250;28;6808;-74
2022/05/03 07:46:09;;;;;;;;;;;;;;;16.83;41.94;100806.75;4979960;28;6904;-74
2022/05/03 07:48:35;;;;;;;;;;;;;;;16.89;41.82;100817.28;4986616;28;6803;-74
2022/05/03 07:51:00;;;;;;;;;;;;;;;16.98;41.43;100816.66;4954811;28;6879;-74
2022/05/03 07:53:26;;;;;;;;;;;;;;;17.06;41.66;100817.78;4982594;28;6804;-74
2022/05/03 07:55:52;;;;;;;;;;;;;;;17.15;41.18;100809.44;4986428;28;7062;-75
2022/05/03 07:58:19;;;;;;;;;;;;;;;17.25;41.20;100813.13;4985297;28;6792;-75
2022/05/03 08:00:45;;;;;;;;;;;;;;;17.38;41.04;100805.66;4983047;28;6962;-75
2022/05/03 08:03:13;;;;;;;;;;;;;;;17.52;40.92;100811.22;4983048;28;6927;-75
2022/05/03 08:05:39;;;;;;;;;;;;;;;17.68;40.57;100809.91;4983143;28;6819;-75
2022/05/03 08:08:05;;;;;;;;;;;;;;;17.84;39.88;100800.81;4983751;28;7189;-75
2022/05/03 08:10:31;;;;;;;;;;;;;;;17.95;40.31;100811.41;4967937;28;7058;-75
2022/05/03 08:12:56;;;;;;;;;;;;;;;18.09;40.01;100802.31;4984756;28;8263;-74
2022/05/03 08:15:22;;;;;;;;;;;;;;;18.23;39.68;100804.31;4966158;28;6882;-75
2022/05/03 08:17:48;;;;;;;;;;;;;;;18.36;39.52;100811.56;4984427;28;6788;-75
2022/05/03 08:20:15;;;;;;;;;;;;;;;18.45;38.70;100806.59;4965519;28;7143;-74
2022/05/03 08:22:42;;;;;;;;;;;;;;;18.53;38.96;100808.44;4982739;28;6804;-74
2022/05/03 08:25:09;;;;;;;;;;;;;;;18.62;38.48;100807.78;4983870;28;6884;-74
2022/05/03 08:27:40;;;;;;;;;;;;;;;18.71;37.97;100813.16;4983622;28;6800;-74
2022/05/03 08:30:08;;;;;;;;;;;;;;;18.83;38.50;100812.53;4985727;28;6816;-74
2022/05/03 08:32:34;;;;;;;;;;;;;;;18.95;38.44;100811.91;4983742;28;6958;-75
2022/05/03 08:35:00;;;;;;;;;;;;;;;19.10;37.50;100816.56;4985871;28;6929;-75
2022/05/03 08:42:55;;;;;;;;;;;;;;;19.50;35.70;100814.69;4986259;28;7048;-75
2022/05/03 08:45:21;;;;;;;;;;;;;;;19.60;35.18;100809.66;4984286;28;6804;-74
2022/05/03 08:47:48;;;;;;;;;;;;;;;19.73;34.96;100815.94;4965329;28;7196;-74
2022/05/03 08:50:19;;;;;;;;;;;;;;;19.91;34.65;100818.00;4998421;28;6800;-74
2022/05/03 08:52:59;;;;;;;;;;;;;;;20.20;34.48;100815.88;4985010;28;6820;-75
2022/05/03 08:55:26;;;;;;;;;;;;;;;20.54;33.78;100815.47;4987001;28;7214;-75
2022/05/03 08:57:53;;;;;;;;;;;;;;;20.89;33.27;100817.69;4970205;28;6812;-75
2022/05/03 09:00:20;;;;;;;;;;;;;;;21.31;32.74;100809.44;4982318;28;6811;-75
2022/05/03 09:02:51;;;;;;;;;;;;;;;21.72;32.26;100814.19;4980301;28;6808;-74
2022/05/03 09:05:18;;;;;;;;;;;;;;;22.03;31.65;100817.06;4980223;28;6823;-74
2022/05/03 09:07:51;;;;;;;;;;;;;;;22.35;30.80;100818.13;4984202;28;7071;-74
2022/05/03 09:10:24;;;;;;;;;;;;;;;22.64;30.31;100819.19;4966471;28;6831;-74
2022/05/03 09:13:23;;;;;;;;;;;;;;;22.91;30.07;100822.78;5030514;28;6787;-74
2022/05/03 09:15:56;;;;;;;;;;;;;;;23.24;30.47;100815.88;5039701;28;7089;-74
2022/05/03 09:18:27;;;;;;;;;;;;;;;23.60;29.76;100818.56;5013387;28;7357;-74
2022/05/03 09:23:47;;;;;;;;;;;;;;;24.25;29.07;100810.72;5010996;28;6908;-74
2022/05/03 09:26:26;;;;;;;;;;;;;;;24.55;28.17;100816.72;5023532;28;7913;-74
2022/05/03 09:29:08;;;;;;;;;;;;;;;24.77;27.45;100812.28;5024677;28;6803;-74
2022/05/03 09:31:48;;;;;;;;;;;;;;;25.08;27.21;100825.25;5005508;28;6811;-74
2022/05/03 09:34:18;;;;;;;;;;;;;;;25.47;26.50;100822.41;5021000;28;6902;-74
2022/05/03 09:36:50;;;;;;;;;;;;;;;25.75;26.61;100816.09;5020423;28;6839;-74
2022/05/03 09:39:30;;;;;;;;;;;;;;;25.95;26.16;100810.66;5022708;28;7023;-74
2022/05/03 09:42:16;;;;;;;;;;;;;;;26.04;25.58;100810.59;5020861;28;6804;-74
2022/05/03 09:44:57;;;;;;;;;;;;;;;26.05;25.61;100803.56;5021647;28;6808;-74
2022/05/03 09:47:28;;;;;;;;;;;;;;;26.20;25.62;100807.81;5016985;28;6893;-74
2022/05/03 09:49:54;;;;;;;;;;;;;;;26.47;25.10;100805.75;5021842;28;6804;-74
2022/05/03 09:52:37;;;;;;;;;;;;;;;26.53;25.05;100807.44;5017813;28;6787;-74
2022/05/03 09:55:11;;;;;;;;;;;;;;;26.50;24.72;100803.09;5009963;28;6803;-74
2022/05/03 09:57:40;;;;;;;;;;;;;;;26.37;24.53;100805.03;5006226;28;6799;-74
2022/05/03 10:00:10;;;;;;;;;;;;;;;26.36;24.98;100795.38;5021882;28;6816;-74
2022/05/03 10:02:42;;;;;;;;;;;;;;;26.52;24.65;100789.94;5015341;28;6883;-74
2022/05/03 10:05:11;;;;;;;;;;;;;;;26.75;24.56;100795.78;5008545;28;7004;-74
2022/05/03 10:07:40;;;;;;;;;;;;;;;27.04;24.29;100785.78;5023076;28;6812;-74
2022/05/03 10:10:12;;;;;;;;;;;;;;;27.31;23.93;100792.38;5007473;28;6935;-74
2022/05/03 10:12:38;;;;;;;;;;;;;;;27.59;23.84;100789.34;5011158;28;7365;-74
2022/05/03 10:15:05;;;;;;;;;;;;;;;27.79;23.43;100782.84;5007387;28;6815;-74
2022/05/03 10:20:45;;;;;;;;;;;;;;;27.95;23.09;100783.44;5007892;28;6978;-74
2022/05/03 10:23:25;;;;;;;;;;;;;;;28.06;23.25;100780.59;5008020;28;7121;-74
2022/05/03 10:25:51;;;;;;;;;;;;;;;28.23;22.58;100772.41;4988309;28;6812;-73
2022/05/03 10:28:17;;;;;;;;;;;;;;;28.30;23.00;100775.81;5008780;28;7076;-74
2022/05/03 10:31:04;;;;;;;;;;;;;;;28.45;23.36;100779.00;4987935;28;7371;-74
2022/05/03 10:33:30;;;;;;;;;;;;;;;28.76;22.42;100775.72;5007279;28;6792;-74
2022/05/03 10:35:58;;;;;;;;;;;;;;;29.11;22.96;100779.34;5001020;28;7266;-74
2022/05/03 10:38:46;;;;;;;;;;;;;;;29.47;22.56;100768.84;5007764;28;6996;-74
2022/05/03 10:41:24;;;;;;;;;;;;;;;29.67;21.80;100764.81;4997139;28;6812;-74
2022/05/03 10:43:49;;;;;;;;;;;;;;;29.73;21.50;100759.34;5008771;28;6828;-74
2022/05/03 10:46:23;;;;;;;;;;;;;;;29.50;21.53;100766.13;5002924;28;6973;-74
2022/05/03 10:49:13;;;;;;;;;;;;;;;29.26;21.69;100767.56;4991979;28;8715;-74
2022/05/03 10:51:39;;;;;;;;;;;;;;;29.23;21.32;100765.00;5009111;28;6968;-74
2022/05/03 10:54:07;;;;;;;;;;;;;;;29.37;21.76;100762.03;5005380;28;7197;-74
2022/05/03 10:56:33;;;;;;;;;;;;;;;29.47;21.13;100766.22;5014020;28;6950;-74
2022/05/03 10:59:10;;;;;;;;;;;;;;;29.38;21.09;100764.63;5010736;28;6816;-74
2022/05/03 11:01:54;;;;;;;;;;;;;;;29.24;21.25;100762.31;4993375;28;6815;-74
2022/05/03 11:04:22;;;;;;;;;;;;;;;29.25;20.95;100750.84;4995534;28;6812;-74
2022/05/03 11:06:49;;;;;;;;;;;;;;;29.43;21.33;100750.44;5008095;28;6815;-74
2022/05/03 11:09:31;;;;;;;;;;;;;;;29.69;20.61;100747.16;5008671;28;7298;-74
2022/05/03 11:12:00;;;;;;;;;;;;;;;30.02;21.59;100741.00;4996116;28;7172;-74
2022/05/03 11:14:26;;;;;;;;;;;;;;;30.42;21.24;100741.63;4994024;28;6823;-74
2022/05/03 11:17:12;;;;;;;;;;;;;;;30.70;20.39;100741.72;4990518;28;6800;-74
2022/05/03 11:19:59;;;;;;;;;;;;;;;30.91;20.54;100739.28;5011969;28;6887;-74
2022/05/03 11:22:35;;;;;;;;;;;;;;;31.01;20.10;100729.28;5008710;28;6815;-74
2022/05/03 11:25:12;;;;;;;;;;;;;;;31.17;20.19;100735.78;5006209;28;7159;-74
2022/05/03 11:27:39;;;;;;;;;;;;;;;31.04;19.68;100729.19;4995762;28;6831;-74
2022/05/03 11:30:11;;;;;;;;;;;;;;;30.90;20.26;100738.44;5010368;28;7414;-74
2022/05/03 11:32:42;;;;;;;;;;;;;;;30.83;19.87;100725.44;5010907;28;6962;-75
2022/05/03 11:35:14;;;;;;;;;;;;;;;30.70;19.71;100722.31;4993950;28;6879;-74
2022/05/03 11:37:50;;;;;;;;;;;;;;;30.81;19.30;100727.28;5009950;28;6808;-74
2022/05/03 11:40:20;;;;;;;;;;;;;;;30.88;19.14;100719.09;5010506;28;7899;-74
2022/05/03 11:42:47;;;;;;;;;;;;;;;30.71;19.11;100713.47;4994600;28;6811;-74
2022/05/03 11:45:14;;;;;;;;;;;;;;;30.61;19.38;100713.75;5009421;28;6963;-74
2022/05/03 11:47:44;;;;;;;;;;;;;;;30.89;19.71;100710.22;4991842;28;7047;-74
2022/05/03 11:55:58;;;;;;;;;;;;;;;31.27;19.40;100706.41;5005224;28;7005;-75
2022/05/03 11:56:01;;;;;;;;;;;;;;;31.35;19.48;100704.34;4999597;28;6900;-75
2022/05/03 11:58:30;;;;;;;;;;;;;;;31.37;18.99;100694.56;4998555;28;8067;-75
2022/05/03 12:00:55;;;;;;;;;;;;;;;31.45;18.89;100703.13;4994828;28;6804;-75
2022/05/03 12:03:21;;;;;;;;;;;;;;;31.56;18.81;100704.53;4979287;28;6930;-75
2022/05/03 12:06:04;;;;;;;;;;;;;;;31.34;18.63;100699.09;4988302;28;6891;-75
2022/05/03 12:08:33;;;;;;;;;;;;;;;30.94;19.31;100696.00;4993245;28;6874;-74
2022/05/03 12:10:59;;;;;;;;;;;;;;;30.88;19.40;100689.97;5001672;28;6816;-74
2022/05/03 12:13:29;;;;;;;;;;;;;;;31.10;19.70;100686.66;4982785;28;7017;-74
2022/05/03 12:15:57;;;;;;;;;;;;;;;31.30;18.96;100685.13;5005715;28;6832;-75
2022/05/03 12:18:34;;;;;;;;;;;;;;;31.26;19.19;100686.13;4997804;28;6820;-75
2022/05/03 12:21:16;;;;;;;;;;;;;;;31.16;18.92;100683.78;5006537;28;6887;-75
2022/05/03 12:23:51;;;;;;;;;;;;;;;31.17;19.16;100682.00;4991453;28;6873;-75
2022/05/03 12:26:17;;;;;;;;;;;;;;;31.17;18.96;100672.25;4989491;28;6796;-75
2022/05/03 12:28:51;;;;;;;;;;;;;;;31.22;19.53;100679.22;4990498;28;7067;-75
2022/05/03 12:31:19;;;;;;;;;;;;;;;31.20;19.26;100676.59;4991055;28;6993;-75
2022/05/03 12:33:56;;;;;;;;;;;;;;;31.14;19.18;100675.03;4986668;28;6800;-74
2022/05/03 12:36:38;;;;;;;;;;;;;;;30.96;19.38;100673.88;4986774;28;6820;-74
2022/05/03 12:39:19;;;;;;;;;;;;;;;30.98;19.37;100661.44;4988711;28;7109;-74
2022/05/03 12:41:59;;;;;;;;;;;;;;;31.23;18.62;100659.75;5006881;28;7279;-74
2022/05/03 12:44:25;;;;;;;;;;;;;;;31.28;19.07;100671.06;4981162;28;6807;-74
2022/05/03 12:47:00;;;;;;;;;;;;;;;31.24;18.48;100662.38;5001540;28;6791;-74
2022/05/03 12:49:25;;;;;;;;;;;;;;;31.30;18.79;100659.50;4998408;28;6839;-75
2022/05/03 12:51:51;;;;;;;;;;;;;;;31.46;18.45;100656.34;5004660;28;6780;-74
2022/05/03 12:54:17;;;;;;;;;;;;;;;31.48;18.02;100656.25;4988138;28;7270;-74
2022/05/03 12:59:29;;;;;;;;;;;;;;;30.56;19.52;100654.84;4989477;28;6958;-74
2022/05/03 13:01:57;;;;;;;;;;;;;;;30.21;18.55;100654.13;4997834;28;6998;-74
2022/05/03 13:04:31;;;;;;;;;;;;;;;29.94;19.72;100648.75;4988809;28;7491;-74
2022/05/03 13:06:58;;;;;;;;;;;;;;;30.00;19.12;100645.06;4990819;28;6808;-74
2022/05/03 13:09:25;;;;;;;;;;;;;;;30.02;19.87;100652.00;5005249;28;6811;-74
2022/05/03 13:11:52;;;;;;;;;;;;;;;30.08;20.03;100640.44;5004424;28;7085;-74
2022/05/03 13:14:19;;;;;;;;;;;;;;;30.31;19.32;100638.88;4989914;28;6816;-74
2022/05/03 13:16:45;;;;;;;;;;;;;;;30.49;19.94;100640.94;4990692;28;6824;-74
2022/05/03 13:19:15;;;;;;;;;;;;;;;30.44;20.07;100645.50;4992525;28;6848;-74
2022/05/03 13:21:42;;;;;;;;;;;;;;;30.27;19.97;100635.47;5001115;28;6803;-74
2022/05/03 13:24:09;;;;;;;;;;;;;;;30.13;20.13;100642.94;4992570;28;6796;-74
2022/05/03 13:26:36;;;;;;;;;;;;;;;29.95;19.82;100634.63;4988748;28;6807;-74
2022/05/03 13:29:07;;;;;;;;;;;;;;;29.92;20.18;100632.06;4983851;28;6944;-74
2022/05/03 13:31:34;;;;;;;;;;;;;;;29.89;20.08;100626.88;4993790;28;6844;-74
2022/05/03 13:33:59;;;;;;;;;;;;;;;29.64;20.42;100622.28;4991254;28;6800;-74
2022/05/03 13:41:53;;;;;;;;;;;;;;;29.06;21.03;100615.91;4990411;28;6903;-74
2022/05/03 13:44:19;;;;;;;;;;;;;;;29.05;20.82;100608.88;5002073;28;7836;-74
2022/05/03 13:46:45;;;;;;;;;;;;;;;29.18;21.10;100617.34;5007085;28;6934;-74
2022/05/03 13:49:13;;;;;;;;;;;;;;;29.34;20.98;100619.56;4989737;28;6965;-74
2022/05/03 13:51:40;;;;;;;;;;;;;;;29.41;21.07;100610.56;5005026;28;6824;-74